createdAt,value
2023-05-05T00:00:13.038Z,48.98
2023-05-05T00:01:13.089Z,49.40
2023-05-05T00:02:13.223Z,48.42
2023-05-05T00:03:13.202Z,48.51
2023-05-05T00:04:13.205Z,47.64
2023-05-05T00:05:13.181Z,47.32
2023-05-05T00:06:13.631Z,47.18
2023-05-05T00:07:13.271Z,47.32
2023-05-05T00:08:13.358Z,47.35
2023-05-05T00:09:13.434Z,47.02
2023-05-05T00:10:13.443Z,47.15
2023-05-05T00:11:13.555Z,46.68
2023-05-05T00:12:13.517Z,46.55
2023-05-05T00:13:13.700Z,46.94
2023-05-05T00:14:13.631Z,46.56
2023-05-05T00:15:13.689Z,46.15
2023-05-05T00:16:13.747Z,46.00
2023-05-05T00:17:13.827Z,46.02
2023-05-05T00:18:13.832Z,45.80
2023-05-05T00:19:13.847Z,45.98
2023-05-05T00:20:13.895Z,45.71
2023-05-05T00:21:13.880Z,45.59
2023-05-05T00:22:13.898Z,46.48
2023-05-05T00:23:13.925Z,46.28
2023-05-05T00:24:13.990Z,46.10
2023-05-05T00:25:13.985Z,46.07
2023-05-05T00:26:14.006Z,45.94
2023-05-05T00:27:14.016Z,45.66
2023-05-05T00:28:14.050Z,45.58
2023-05-05T00:29:14.028Z,45.44
2023-05-05T00:30:14.076Z,45.39
2023-05-05T00:31:14.246Z,45.32
2023-05-05T00:32:14.147Z,45.25
2023-05-05T00:33:14.140Z,45.02
2023-05-05T00:34:14.157Z,45.07
2023-05-05T00:35:14.172Z,45.00
2023-05-05T00:36:14.213Z,45.11
2023-05-05T00:37:14.166Z,45.08
2023-05-05T00:38:14.180Z,45.11
2023-05-05T00:39:14.156Z,45.44
2023-05-05T00:40:14.188Z,45.82
2023-05-05T00:41:14.219Z,45.78
2023-05-05T00:42:14.219Z,45.76
2023-05-05T00:43:14.218Z,45.50
2023-05-05T00:44:14.350Z,45.44
2023-05-05T00:45:14.322Z,45.50
2023-05-05T00:46:14.406Z,45.42
2023-05-05T00:47:14.405Z,45.42
2023-05-05T00:48:14.473Z,45.58
2023-05-05T00:49:14.532Z,45.78
2023-05-05T00:50:14.476Z,45.61
2023-05-05T00:51:14.580Z,45.82
2023-05-05T00:52:14.593Z,45.92
2023-05-05T00:53:14.663Z,45.62
2023-05-05T00:54:14.665Z,45.51
2023-05-05T00:55:14.698Z,45.82
2023-05-05T00:56:14.711Z,45.64
2023-05-05T00:57:14.789Z,45.83
2023-05-05T00:58:14.870Z,45.83
2023-05-05T00:59:14.820Z,45.83
2023-05-05T01:00:14.880Z,45.84
2023-05-05T01:01:14.994Z,46.04
2023-05-05T01:02:15.010Z,46.49
2023-05-05T01:03:15.031Z,46.47
2023-05-05T01:04:15.030Z,46.48
2023-05-05T01:05:15.113Z,46.80
2023-05-05T01:06:15.122Z,46.85
2023-05-05T01:07:15.052Z,46.55
2023-05-05T01:08:15.118Z,46.31
2023-05-05T01:09:15.186Z,46.51
2023-05-05T01:10:20.239Z,46.71
2023-05-05T01:11:16.184Z,46.62
2023-05-05T01:12:15.625Z,46.87
2023-05-05T01:13:15.236Z,46.71
2023-05-05T01:14:15.147Z,46.49
2023-05-05T01:15:15.192Z,46.42
2023-05-05T01:16:15.182Z,46.33
2023-05-05T01:17:15.161Z,46.55
2023-05-05T01:18:15.121Z,47.27
2023-05-05T01:19:15.150Z,47.40
2023-05-05T01:20:15.160Z,46.86
2023-05-05T01:21:15.131Z,46.93
2023-05-05T01:22:15.163Z,47.29
2023-05-05T01:23:15.268Z,48.00
2023-05-05T01:24:15.135Z,48.55
2023-05-05T01:25:15.102Z,48.61
2023-05-05T01:26:15.127Z,48.89
2023-05-05T01:27:15.644Z,48.56
2023-05-05T01:28:15.212Z,49.25
2023-05-05T01:29:15.243Z,49.23
2023-05-05T01:30:15.240Z,49.34
2023-05-05T01:31:15.358Z,49.57
2023-05-05T01:32:15.337Z,49.53
2023-05-05T01:33:15.337Z,50.09
2023-05-05T01:34:15.379Z,49.79
2023-05-05T01:35:15.395Z,49.22
2023-05-05T01:36:15.396Z,50.31
2023-05-05T01:37:15.475Z,50.51
2023-05-05T01:38:15.498Z,50.91
2023-05-05T01:39:15.552Z,50.93
2023-05-05T01:40:15.565Z,50.19
2023-05-05T01:41:15.559Z,49.77
2023-05-05T01:42:15.603Z,49.40
2023-05-05T01:43:15.592Z,49.12
2023-05-05T01:44:15.577Z,49.03
2023-05-05T01:45:15.646Z,48.97
2023-05-05T01:46:15.762Z,48.76
2023-05-05T01:47:16.113Z,48.83
2023-05-05T01:48:15.840Z,48.52
2023-05-05T01:49:15.910Z,48.39
2023-05-05T01:50:15.932Z,48.02
2023-05-05T01:51:15.953Z,48.02
2023-05-05T01:52:16.008Z,48.51
2023-05-05T01:53:16.021Z,48.63
2023-05-05T01:54:16.070Z,48.98
2023-05-05T01:55:16.100Z,48.45
2023-05-05T01:56:16.132Z,47.83
2023-05-05T01:57:16.146Z,48.32
2023-05-05T01:58:16.186Z,49.53
2023-05-05T01:59:16.215Z,48.81
2023-05-05T02:00:17.153Z,48.49
2023-05-05T02:01:16.309Z,48.74
2023-05-05T02:02:16.345Z,48.28
2023-05-05T02:03:16.401Z,48.49
2023-05-05T02:04:16.346Z,48.90
2023-05-05T02:05:16.417Z,49.14
2023-05-05T02:06:16.469Z,48.35
2023-05-05T02:07:16.449Z,48.26
2023-05-05T02:08:16.628Z,47.73
2023-05-05T02:09:16.576Z,48.18
2023-05-05T02:10:16.599Z,48.22
2023-05-05T02:11:16.681Z,48.37
2023-05-05T02:12:16.711Z,48.30
2023-05-05T02:13:16.862Z,48.33
2023-05-05T02:14:16.717Z,48.79
2023-05-05T02:15:16.742Z,49.75
2023-05-05T02:16:16.974Z,48.90
2023-05-05T02:17:16.842Z,48.64
2023-05-05T02:18:16.848Z,48.48
2023-05-05T02:19:16.930Z,49.26
2023-05-05T02:20:16.961Z,48.92
2023-05-05T02:21:16.964Z,48.94
2023-05-05T02:22:17.010Z,48.93
2023-05-05T02:23:16.980Z,49.19
2023-05-05T02:24:17.008Z,49.00
2023-05-05T02:25:17.103Z,48.61
2023-05-05T02:26:17.152Z,48.57
2023-05-05T02:27:17.182Z,48.41
2023-05-05T02:28:17.206Z,48.38
2023-05-05T02:29:17.307Z,48.16
2023-05-05T02:30:17.283Z,47.96
2023-05-05T02:31:17.422Z,47.85
2023-05-05T02:32:17.365Z,47.75
2023-05-05T02:33:17.436Z,47.97
2023-05-05T02:34:17.455Z,48.12
2023-05-05T02:35:17.491Z,48.11
2023-05-05T02:36:17.477Z,48.00
2023-05-05T02:37:17.511Z,49.16
2023-05-05T02:38:17.596Z,49.70
2023-05-05T02:39:17.546Z,49.40
2023-05-05T02:40:17.512Z,49.11
2023-05-05T02:41:17.545Z,48.95
2023-05-05T02:42:17.554Z,48.76
2023-05-05T02:43:17.666Z,48.97
2023-05-05T02:44:17.572Z,49.00
2023-05-05T02:45:17.628Z,49.02
2023-05-05T02:46:17.787Z,48.90
2023-05-05T02:47:17.697Z,48.62
2023-05-05T02:48:17.706Z,48.78
2023-05-05T02:49:17.715Z,48.60
2023-05-05T02:50:17.732Z,48.54
2023-05-05T02:51:18.123Z,48.93
2023-05-05T02:52:17.778Z,49.07
2023-05-05T02:53:17.813Z,48.88
2023-05-05T02:54:17.788Z,49.60
2023-05-05T02:55:17.845Z,49.90
2023-05-05T02:56:17.859Z,50.39
2023-05-05T02:57:17.924Z,51.28
2023-05-05T02:58:17.949Z,52.50
2023-05-05T02:59:17.959Z,52.49
2023-05-05T03:00:17.990Z,52.17
2023-05-05T03:01:18.073Z,52.57
2023-05-05T03:02:18.068Z,52.47
2023-05-05T03:03:18.221Z,53.10
2023-05-05T03:04:18.167Z,52.74
2023-05-05T03:05:18.177Z,52.82
2023-05-05T03:06:18.202Z,52.74
2023-05-05T03:07:18.214Z,52.37
2023-05-05T03:08:18.229Z,52.09
2023-05-05T03:09:18.295Z,51.75
2023-05-05T03:10:18.309Z,51.89
2023-05-05T03:11:18.289Z,51.82
2023-05-05T03:12:18.360Z,51.38
2023-05-05T03:13:18.421Z,51.25
2023-05-05T03:14:18.500Z,51.18
2023-05-05T03:15:18.512Z,51.37
2023-05-05T03:16:18.594Z,51.02
2023-05-05T03:17:18.545Z,50.70
2023-05-05T03:18:18.576Z,50.27
2023-05-05T03:19:18.597Z,50.29
2023-05-05T03:20:18.675Z,49.84
2023-05-05T03:21:18.673Z,49.61
2023-05-05T03:22:18.742Z,49.55
2023-05-05T03:23:18.756Z,49.42
2023-05-05T03:24:18.783Z,49.41
2023-05-05T03:25:18.812Z,49.54
2023-05-05T03:26:18.882Z,49.64
2023-05-05T03:27:18.883Z,50.22
2023-05-05T03:28:18.921Z,50.10
2023-05-05T03:29:18.936Z,50.77
2023-05-05T03:30:18.991Z,51.13
2023-05-05T03:31:19.070Z,51.73
2023-05-05T03:32:19.035Z,51.67
2023-05-05T03:33:19.046Z,51.28
2023-05-05T03:34:19.073Z,50.64
2023-05-05T03:35:19.109Z,51.02
2023-05-05T03:36:19.179Z,50.56
2023-05-05T03:37:19.172Z,50.68
2023-05-05T03:38:19.244Z,50.33
2023-05-05T03:39:19.339Z,51.03
2023-05-05T03:40:19.441Z,50.92
2023-05-05T03:41:19.454Z,50.74
2023-05-05T03:42:19.386Z,51.11
2023-05-05T03:43:19.383Z,51.15
2023-05-05T03:44:19.401Z,50.96
2023-05-05T03:45:19.417Z,50.86
2023-05-05T03:46:19.484Z,50.71
2023-05-05T03:47:19.504Z,50.52
2023-05-05T03:48:19.478Z,50.50
2023-05-05T03:49:19.685Z,50.59
2023-05-05T03:50:19.572Z,50.49
2023-05-05T03:51:20.156Z,50.57
2023-05-05T03:52:19.658Z,49.78
2023-05-05T03:53:19.702Z,49.58
2023-05-05T03:54:19.759Z,49.67
2023-05-05T03:55:19.757Z,50.46
2023-05-05T03:56:19.794Z,50.75
2023-05-05T03:57:19.850Z,51.12
2023-05-05T03:58:19.895Z,51.15
2023-05-05T03:59:19.910Z,51.02
2023-05-05T04:00:19.909Z,51.28
2023-05-05T04:01:19.974Z,51.46
2023-05-05T04:02:20.077Z,52.52
2023-05-05T04:03:20.147Z,52.83
2023-05-05T04:04:20.119Z,53.75
2023-05-05T04:05:20.154Z,53.98
2023-05-05T04:06:20.183Z,53.31
2023-05-05T04:07:20.192Z,53.26
2023-05-05T04:08:20.269Z,53.26
2023-05-05T04:09:20.295Z,52.99
2023-05-05T04:10:20.371Z,53.61
2023-05-05T04:11:20.396Z,53.95
2023-05-05T04:12:20.402Z,53.63
2023-05-05T04:13:20.392Z,54.10
2023-05-05T04:14:20.406Z,53.52
2023-05-05T04:15:20.413Z,53.53
2023-05-05T04:16:20.492Z,53.12
2023-05-05T04:17:20.498Z,53.46
2023-05-05T04:18:20.540Z,53.15
2023-05-05T04:19:20.544Z,52.82
2023-05-05T04:20:20.604Z,52.35
2023-05-05T04:21:20.673Z,52.10
2023-05-05T04:22:20.668Z,51.92
2023-05-05T04:23:20.705Z,51.62
2023-05-05T04:24:20.718Z,51.40
2023-05-05T04:25:20.730Z,51.11
2023-05-05T04:26:20.760Z,50.92
2023-05-05T04:27:20.786Z,50.85
2023-05-05T04:28:21.749Z,50.92
2023-05-05T04:29:20.823Z,50.75
2023-05-05T04:30:20.889Z,50.96
2023-05-05T04:31:21.015Z,51.41
2023-05-05T04:32:21.002Z,51.62
2023-05-05T04:33:21.048Z,51.82
2023-05-05T04:34:21.066Z,51.96
2023-05-05T04:35:21.078Z,51.46
2023-05-05T04:36:21.127Z,51.62
2023-05-05T04:37:21.172Z,51.34
2023-05-05T04:38:21.286Z,51.12
2023-05-05T04:39:21.256Z,50.85
2023-05-05T04:40:21.252Z,50.57
2023-05-05T04:41:21.293Z,50.42
2023-05-05T04:42:21.366Z,50.21
2023-05-05T04:43:21.362Z,50.55
2023-05-05T04:44:21.398Z,50.66
2023-05-05T04:45:21.426Z,50.47
2023-05-05T04:46:21.744Z,50.66
2023-05-05T04:47:21.509Z,50.51
2023-05-05T04:48:21.529Z,50.26
2023-05-05T04:49:22.173Z,50.40
2023-05-05T04:50:21.619Z,50.23
2023-05-05T04:51:21.643Z,50.82
2023-05-05T04:52:21.663Z,50.54
2023-05-05T04:53:21.687Z,50.45
2023-05-05T04:54:21.700Z,50.50
2023-05-05T04:55:21.714Z,50.31
2023-05-05T04:56:21.820Z,50.12
2023-05-05T04:57:21.827Z,50.01
2023-05-05T04:58:21.797Z,49.87
2023-05-05T04:59:21.833Z,49.98
2023-05-05T05:00:21.932Z,49.85
2023-05-05T05:01:22.060Z,49.94
2023-05-05T05:02:22.107Z,49.64
2023-05-05T05:03:22.140Z,49.49
2023-05-05T05:04:22.080Z,49.16
2023-05-05T05:05:22.108Z,49.35
2023-05-05T05:06:22.154Z,49.02
2023-05-05T05:07:22.187Z,48.97
2023-05-05T05:08:22.716Z,49.41
2023-05-05T05:09:23.217Z,49.33
2023-05-05T05:10:22.292Z,49.96
2023-05-05T05:11:22.338Z,50.12
2023-05-05T05:12:22.338Z,50.48
2023-05-05T05:13:22.812Z,50.52
2023-05-05T05:14:22.428Z,50.07
2023-05-05T05:15:22.438Z,50.14
2023-05-05T05:16:23.248Z,50.97
2023-05-05T05:17:22.582Z,50.78
2023-05-05T05:18:22.560Z,49.88
2023-05-05T05:19:22.569Z,49.60
2023-05-05T05:20:22.634Z,50.89
2023-05-05T05:21:22.694Z,50.33
2023-05-05T05:22:22.772Z,49.90
2023-05-05T05:23:22.707Z,49.92
2023-05-05T05:24:22.761Z,50.07
2023-05-05T05:25:22.800Z,49.84
2023-05-05T05:26:22.803Z,49.66
2023-05-05T05:27:22.875Z,49.61
2023-05-05T05:28:22.891Z,49.64
2023-05-05T05:29:22.910Z,50.10
2023-05-05T05:30:22.934Z,49.78
2023-05-05T05:31:23.033Z,50.59
2023-05-05T05:32:22.987Z,50.49
2023-05-05T05:33:23.137Z,51.48
2023-05-05T05:34:23.090Z,50.66
2023-05-05T05:35:23.030Z,51.38
2023-05-05T05:36:23.216Z,50.90
2023-05-05T05:37:23.071Z,50.39
2023-05-05T05:38:23.091Z,50.28
2023-05-05T05:39:23.112Z,51.06
2023-05-05T05:40:23.731Z,50.14
2023-05-05T05:41:23.204Z,51.24
2023-05-05T05:42:23.212Z,50.67
2023-05-05T05:43:23.275Z,50.47
2023-05-05T05:44:23.395Z,50.40
2023-05-05T05:45:23.370Z,50.53
2023-05-05T05:46:23.347Z,51.17
2023-05-05T05:47:23.382Z,50.93
2023-05-05T05:48:23.317Z,50.84
2023-05-05T05:49:23.389Z,50.69
2023-05-05T05:50:23.381Z,50.11
2023-05-05T05:51:23.462Z,50.58
2023-05-05T05:52:23.447Z,50.69
2023-05-05T05:53:23.492Z,51.86
2023-05-05T05:54:23.545Z,51.78
2023-05-05T05:55:23.543Z,51.81
2023-05-05T05:56:23.612Z,52.16
2023-05-05T05:57:23.589Z,52.46
2023-05-05T05:58:23.604Z,52.09
2023-05-05T05:59:23.648Z,51.66
2023-05-05T06:00:23.692Z,51.18
2023-05-05T06:01:23.713Z,51.17
2023-05-05T06:02:23.719Z,50.63
2023-05-05T06:03:23.893Z,51.26
2023-05-05T06:04:23.848Z,51.69
2023-05-05T06:05:23.839Z,49.83
2023-05-05T06:06:24.218Z,48.57
2023-05-05T06:07:23.970Z,48.86
2023-05-05T06:08:25.686Z,49.56
2023-05-05T06:09:24.017Z,50.41
2023-05-05T06:10:27.770Z,49.28
2023-05-05T06:11:24.128Z,48.71
2023-05-05T06:12:24.033Z,47.64
2023-05-05T06:13:23.994Z,47.39
2023-05-05T06:14:24.020Z,48.09
2023-05-05T06:15:24.020Z,47.42
2023-05-05T06:16:24.104Z,48.27
2023-05-05T06:17:23.972Z,47.43
2023-05-05T06:18:24.288Z,47.60
2023-05-05T06:19:24.368Z,46.53
2023-05-05T06:20:23.970Z,48.52
2023-05-05T06:21:24.817Z,46.77
2023-05-05T06:22:24.046Z,48.20
2023-05-05T06:23:23.942Z,47.54
2023-05-05T06:24:23.946Z,47.06
2023-05-05T06:25:23.966Z,48.57
2023-05-05T06:26:23.939Z,48.96
2023-05-05T06:27:23.933Z,47.01
2023-05-05T06:28:24.388Z,49.10
2023-05-05T06:29:23.922Z,49.69
2023-05-05T06:30:23.893Z,50.00
2023-05-05T06:31:23.925Z,48.66
2023-05-05T06:32:24.014Z,50.44
2023-05-05T06:33:23.869Z,49.57
2023-05-05T06:34:23.879Z,49.98
2023-05-05T06:35:23.852Z,49.23
2023-05-05T06:36:24.050Z,49.67
2023-05-05T06:37:24.799Z,47.28
2023-05-05T06:38:24.711Z,47.63
2023-05-05T06:39:23.866Z,46.01
2023-05-05T06:40:23.921Z,46.71
2023-05-05T06:41:23.805Z,46.46
2023-05-05T06:42:23.831Z,45.53
2023-05-05T06:43:24.750Z,46.67
2023-05-05T06:44:23.798Z,44.47
2023-05-05T06:45:23.780Z,45.55
2023-05-05T06:46:23.826Z,46.16
2023-05-05T06:47:24.247Z,47.41
2023-05-05T06:48:23.776Z,44.52
2023-05-05T06:49:23.868Z,44.48
2023-05-05T06:50:23.972Z,45.10
2023-05-05T06:51:23.937Z,44.43
2023-05-05T06:52:24.064Z,47.03
2023-05-05T06:53:24.095Z,46.11
2023-05-05T06:54:24.091Z,44.49
2023-05-05T06:55:24.167Z,43.50
2023-05-05T06:56:24.192Z,43.02
2023-05-05T06:57:24.263Z,42.99
2023-05-05T06:58:24.272Z,43.12
2023-05-05T06:59:24.300Z,44.21
2023-05-05T07:00:24.408Z,45.31
2023-05-05T07:01:24.638Z,43.90
2023-05-05T07:02:26.662Z,43.98
2023-05-05T07:03:24.601Z,43.92
2023-05-05T07:04:24.657Z,43.01
2023-05-05T07:05:24.675Z,42.83
2023-05-05T07:06:25.245Z,42.70
2023-05-05T07:07:24.861Z,42.00
2023-05-05T07:08:25.133Z,41.91
2023-05-05T07:09:24.904Z,42.70
2023-05-05T07:10:24.907Z,43.01
2023-05-05T07:11:24.978Z,43.28
2023-05-05T07:12:25.044Z,43.61
2023-05-05T07:13:25.069Z,42.69
2023-05-05T07:14:25.087Z,41.95
2023-05-05T07:15:29.112Z,40.99
2023-05-05T07:16:25.229Z,39.81
2023-05-05T07:17:25.273Z,40.14
2023-05-05T07:18:25.120Z,40.40
2023-05-05T07:19:25.231Z,40.86
2023-05-05T07:20:25.211Z,40.16
2023-05-05T07:21:25.114Z,40.77
2023-05-05T07:22:25.133Z,38.91
2023-05-05T07:23:25.103Z,38.76
2023-05-05T07:24:25.068Z,39.38
2023-05-05T07:25:25.065Z,40.44
2023-05-05T07:26:25.109Z,40.06
2023-05-05T07:27:25.080Z,41.04
2023-05-05T07:28:25.094Z,40.72
2023-05-05T07:29:25.208Z,40.87
2023-05-05T07:30:25.530Z,40.00
2023-05-05T07:31:25.158Z,39.38
2023-05-05T07:32:25.118Z,39.47
2023-05-05T07:33:25.036Z,38.78
2023-05-05T07:34:25.255Z,37.89
2023-05-05T07:35:25.793Z,39.69
2023-05-05T07:36:25.089Z,38.84
2023-05-05T07:37:25.018Z,38.71
2023-05-05T07:38:25.087Z,38.08
2023-05-05T07:39:25.038Z,38.94
2023-05-05T07:40:25.043Z,38.58
2023-05-05T07:41:25.099Z,39.70
2023-05-05T07:42:25.149Z,38.35
2023-05-05T07:43:25.216Z,39.49
2023-05-05T07:44:25.225Z,40.81
2023-05-05T07:45:25.362Z,37.51
2023-05-05T07:46:25.413Z,38.21
2023-05-05T07:47:25.335Z,38.57
2023-05-05T07:48:25.483Z,37.96
2023-05-05T07:49:25.374Z,37.23
2023-05-05T07:50:26.246Z,37.11
2023-05-05T07:51:25.402Z,36.81
2023-05-05T07:52:43.708Z,37.13
2023-05-05T07:53:27.395Z,35.80
2023-05-05T07:54:25.417Z,37.87
2023-05-05T07:55:25.388Z,37.74
2023-05-05T07:56:25.407Z,36.92
2023-05-05T07:57:25.735Z,37.12
2023-05-05T07:58:25.397Z,36.50
2023-05-05T07:59:25.462Z,35.09
2023-05-05T08:00:25.447Z,35.03
2023-05-05T08:01:25.407Z,36.39
2023-05-05T08:02:25.499Z,35.36
2023-05-05T08:03:25.663Z,35.82
2023-05-05T08:04:25.537Z,35.78
2023-05-05T08:05:25.588Z,35.12
2023-05-05T08:06:25.506Z,36.31
2023-05-05T08:07:25.518Z,36.91
2023-05-05T08:08:25.532Z,36.51
2023-05-05T08:09:25.603Z,36.33
2023-05-05T08:10:25.628Z,35.00
2023-05-05T08:11:26.800Z,35.77
2023-05-05T08:12:25.810Z,35.76
2023-05-05T08:13:25.924Z,35.81
2023-05-05T08:14:25.796Z,34.96
2023-05-05T08:15:26.031Z,35.60
2023-05-05T08:16:26.000Z,36.41
2023-05-05T08:17:25.972Z,35.67
2023-05-05T08:18:26.130Z,34.39
2023-05-05T08:19:29.292Z,34.04
2023-05-05T08:20:26.794Z,34.06
2023-05-05T08:21:26.789Z,34.23
2023-05-05T08:22:26.066Z,36.94
2023-05-05T08:23:26.037Z,34.54
2023-05-05T08:24:25.972Z,34.43
2023-05-05T08:25:26.033Z,34.14
2023-05-05T08:26:26.633Z,35.13
2023-05-05T08:27:26.249Z,34.20
2023-05-05T08:28:25.961Z,32.56
2023-05-05T08:29:26.929Z,34.16
2023-05-05T08:30:25.959Z,33.36
2023-05-05T08:31:26.021Z,32.57
2023-05-05T08:32:27.253Z,33.83
2023-05-05T08:33:25.992Z,34.57
2023-05-05T08:34:26.139Z,33.74
2023-05-05T08:35:26.119Z,32.06
2023-05-05T08:36:26.157Z,31.95
2023-05-05T08:37:26.282Z,32.00
2023-05-05T08:38:26.204Z,31.39
2023-05-05T08:39:26.272Z,33.60
2023-05-05T08:40:26.337Z,31.81
2023-05-05T08:41:26.371Z,30.71
2023-05-05T08:42:37.066Z,29.66
2023-05-05T08:43:27.395Z,29.23
2023-05-05T08:44:27.441Z,28.72
2023-05-05T08:45:26.384Z,27.97
2023-05-05T08:46:26.366Z,27.38
2023-05-05T08:47:26.383Z,27.80
2023-05-05T08:48:26.382Z,27.76
2023-05-05T08:49:26.348Z,27.56
2023-05-05T08:50:26.366Z,27.09
2023-05-05T08:51:26.404Z,26.39
2023-05-05T08:52:26.468Z,27.07
2023-05-05T08:53:26.368Z,26.65
2023-05-05T08:54:26.364Z,26.04
2023-05-05T08:55:26.464Z,26.34
2023-05-05T08:56:26.372Z,26.37
2023-05-05T08:57:26.404Z,26.17
2023-05-05T08:58:28.786Z,26.70
2023-05-05T08:59:26.643Z,26.69
2023-05-05T09:00:26.714Z,26.70
2023-05-05T09:01:26.732Z,26.83
2023-05-05T09:02:26.892Z,29.62
2023-05-05T09:03:26.831Z,28.07
2023-05-05T09:04:26.892Z,27.55
2023-05-05T09:05:26.887Z,27.75
2023-05-05T09:06:26.894Z,29.26
2023-05-05T09:07:26.913Z,30.97
2023-05-05T09:08:26.962Z,28.59
2023-05-05T09:09:26.938Z,28.07
2023-05-05T09:10:27.923Z,27.22
2023-05-05T09:11:27.061Z,28.24
2023-05-05T09:12:27.301Z,27.60
2023-05-05T09:13:27.216Z,27.66
2023-05-05T09:14:27.285Z,28.24
2023-05-05T09:15:27.230Z,27.75
2023-05-05T09:16:27.277Z,27.01
2023-05-05T09:17:27.475Z,27.82
2023-05-05T09:18:27.359Z,27.72
2023-05-05T09:19:27.759Z,28.78
2023-05-05T09:20:27.376Z,27.94
2023-05-05T09:21:27.487Z,27.20
2023-05-05T09:22:27.430Z,26.91
2023-05-05T09:23:27.408Z,27.28
2023-05-05T09:24:27.487Z,26.69
2023-05-05T09:25:27.503Z,25.63
2023-05-05T09:26:27.519Z,25.75
2023-05-05T09:27:27.580Z,26.17
2023-05-05T09:28:27.532Z,26.29
2023-05-05T09:29:27.570Z,26.17
2023-05-05T09:30:27.586Z,26.76
2023-05-05T09:31:27.715Z,26.19
2023-05-05T09:32:29.202Z,26.52
2023-05-05T09:33:27.746Z,26.34
2023-05-05T09:34:27.759Z,26.34
2023-05-05T09:35:27.701Z,26.26
2023-05-05T09:36:27.631Z,26.26
2023-05-05T09:37:27.643Z,26.53
2023-05-05T09:38:32.295Z,26.45
2023-05-05T09:39:27.631Z,26.45
2023-05-05T09:40:27.794Z,25.85
2023-05-05T09:41:27.664Z,25.54
2023-05-05T09:42:27.604Z,25.57
2023-05-05T09:43:27.624Z,26.33
2023-05-05T09:44:27.793Z,26.74
2023-05-05T09:45:27.856Z,25.82
2023-05-05T09:46:28.347Z,26.26
2023-05-05T09:47:29.843Z,25.74
2023-05-05T09:48:30.051Z,25.71
2023-05-05T09:49:27.844Z,26.17
2023-05-05T09:50:27.873Z,26.90
2023-05-05T09:51:27.907Z,27.00
2023-05-05T09:52:27.975Z,27.29
2023-05-05T09:53:28.301Z,26.32
2023-05-05T09:54:28.134Z,25.33
2023-05-05T09:55:28.120Z,24.96
2023-05-05T09:56:28.124Z,26.43
2023-05-05T09:57:28.303Z,26.60
2023-05-05T09:58:28.281Z,26.62
2023-05-05T09:59:28.173Z,26.71
2023-05-05T10:00:28.201Z,26.61
2023-05-05T10:01:28.304Z,26.24
2023-05-05T10:02:28.325Z,25.92
2023-05-05T10:03:28.362Z,26.04
2023-05-05T10:04:29.544Z,26.42
2023-05-05T10:05:28.567Z,26.64
2023-05-05T10:06:28.442Z,26.55
2023-05-05T10:07:28.423Z,25.96
2023-05-05T10:08:28.449Z,25.62
2023-05-05T10:09:28.492Z,26.12
2023-05-05T10:10:29.079Z,26.02
2023-05-05T10:11:28.500Z,26.30
2023-05-05T10:12:28.849Z,25.83
2023-05-05T10:13:28.746Z,26.13
2023-05-05T10:14:28.582Z,26.04
2023-05-05T10:15:28.606Z,26.29
2023-05-05T10:16:29.152Z,26.83
2023-05-05T10:17:28.635Z,26.63
2023-05-05T10:18:28.740Z,26.22
2023-05-05T10:19:28.786Z,26.27
2023-05-05T10:20:28.767Z,26.26
2023-05-05T10:21:28.905Z,26.41
2023-05-05T10:22:28.859Z,26.95
2023-05-05T10:23:29.802Z,25.02
2023-05-05T10:24:29.820Z,24.62
2023-05-05T10:25:28.986Z,24.81
2023-05-05T10:26:28.961Z,24.09
2023-05-05T10:27:29.208Z,24.45
2023-05-05T10:28:29.813Z,25.22
2023-05-05T10:29:29.042Z,24.98
2023-05-05T10:30:29.252Z,24.96
2023-05-05T10:31:29.174Z,25.02
2023-05-05T10:32:53.504Z,25.01
2023-05-05T10:33:32.256Z,25.22
2023-05-05T10:34:29.570Z,24.70
2023-05-05T10:35:29.137Z,24.56
2023-05-05T10:36:29.194Z,24.39
2023-05-05T10:37:29.142Z,24.51
2023-05-05T10:38:29.134Z,24.66
2023-05-05T10:39:29.126Z,25.24
2023-05-05T10:40:29.106Z,25.13
2023-05-05T10:41:29.078Z,23.32
2023-05-05T10:42:29.080Z,24.37
2023-05-05T10:43:29.314Z,24.52
2023-05-05T10:44:29.351Z,23.91
2023-05-05T10:45:29.178Z,23.18
2023-05-05T10:46:29.097Z,22.61
2023-05-05T10:47:29.854Z,22.54
2023-05-05T10:48:29.856Z,23.23
2023-05-05T10:49:29.320Z,23.57
2023-05-05T10:50:29.186Z,24.25
2023-05-05T10:51:39.209Z,24.94
2023-05-05T10:52:30.015Z,25.53
2023-05-05T10:53:29.029Z,24.44
2023-05-05T10:54:29.032Z,23.82
2023-05-05T10:55:29.019Z,23.39
2023-05-05T10:56:29.004Z,23.71
2023-05-05T10:57:29.013Z,24.17
2023-05-05T10:58:28.996Z,23.81
2023-05-05T10:59:29.003Z,22.98
2023-05-05T11:00:29.147Z,23.19
2023-05-05T11:01:29.112Z,24.13
2023-05-05T11:02:29.003Z,24.70
2023-05-05T11:03:29.025Z,25.51
2023-05-05T11:04:29.007Z,25.09
2023-05-05T11:05:28.974Z,24.84
2023-05-05T11:06:29.024Z,25.31
2023-05-05T11:07:29.055Z,25.20
2023-05-05T11:08:29.084Z,24.73
2023-05-05T11:09:29.154Z,24.26
2023-05-05T11:10:29.265Z,23.41
2023-05-05T11:11:29.231Z,23.62
2023-05-05T11:12:29.324Z,23.91
2023-05-05T11:13:29.573Z,23.48
2023-05-05T11:14:29.804Z,23.48
2023-05-05T11:15:29.315Z,23.36
2023-05-05T11:16:29.533Z,23.33
2023-05-05T11:17:29.570Z,23.31
2023-05-05T11:18:29.352Z,23.08
2023-05-05T11:19:29.438Z,23.51
2023-05-05T11:20:29.476Z,23.01
2023-05-05T11:21:29.584Z,23.18
2023-05-05T11:22:29.616Z,22.96
2023-05-05T11:23:29.822Z,22.98
2023-05-05T11:24:29.728Z,23.04
2023-05-05T11:25:29.712Z,22.71
2023-05-05T11:26:29.766Z,21.20
2023-05-05T11:27:29.835Z,21.99
2023-05-05T11:28:29.946Z,22.25
2023-05-05T11:29:29.897Z,22.11
2023-05-05T11:30:29.958Z,21.86
2023-05-05T11:31:30.039Z,21.92
2023-05-05T11:32:30.142Z,22.19
2023-05-05T11:33:30.088Z,21.97
2023-05-05T11:34:30.242Z,22.16
2023-05-05T11:35:30.147Z,22.08
2023-05-05T11:36:30.159Z,21.90
2023-05-05T11:37:30.242Z,22.16
2023-05-05T11:38:30.267Z,22.62
2023-05-05T11:39:30.321Z,22.54
2023-05-05T11:40:30.446Z,23.07
2023-05-05T11:41:30.388Z,22.72
2023-05-05T11:42:30.502Z,24.04
2023-05-05T11:43:30.501Z,23.99
2023-05-05T11:44:30.489Z,22.37
2023-05-05T11:45:30.496Z,23.05
2023-05-05T11:46:30.553Z,23.40
2023-05-05T11:47:30.575Z,23.46
2023-05-05T11:48:30.542Z,23.32
2023-05-05T11:49:30.550Z,22.71
2023-05-05T11:50:30.534Z,22.23
2023-05-05T11:51:30.544Z,22.15
2023-05-05T11:52:30.574Z,22.75
2023-05-05T11:53:30.631Z,22.83
2023-05-05T11:54:30.619Z,22.96
2023-05-05T11:55:30.628Z,22.79
2023-05-05T11:56:30.645Z,22.47
2023-05-05T11:57:30.681Z,22.13
2023-05-05T11:58:30.695Z,21.97
2023-05-05T11:59:30.761Z,21.95
2023-05-05T12:00:30.810Z,22.12
2023-05-05T12:01:30.835Z,22.86
2023-05-05T12:02:30.953Z,22.81
2023-05-05T12:03:31.118Z,23.16
2023-05-05T12:04:31.064Z,22.16
2023-05-05T12:05:30.951Z,22.12
2023-05-05T12:06:31.077Z,21.26
2023-05-05T12:07:31.059Z,22.20
2023-05-05T12:08:31.072Z,21.72
2023-05-05T12:09:31.080Z,22.36
2023-05-05T12:10:31.116Z,23.24
2023-05-05T12:11:31.165Z,24.06
2023-05-05T12:12:31.173Z,22.30
2023-05-05T12:13:31.249Z,22.94
2023-05-05T12:14:31.229Z,23.30
2023-05-05T12:15:31.440Z,26.44
2023-05-05T12:16:31.357Z,24.11
2023-05-05T12:17:31.307Z,23.48
2023-05-05T12:18:31.360Z,23.80
2023-05-05T12:19:31.367Z,23.43
2023-05-05T12:20:31.512Z,23.23
2023-05-05T12:21:31.467Z,20.50
2023-05-05T12:22:31.540Z,19.75
2023-05-05T12:23:31.559Z,19.77
2023-05-05T12:24:31.722Z,19.97
2023-05-05T12:25:31.643Z,21.63
2023-05-05T12:26:31.697Z,20.98
2023-05-05T12:27:31.712Z,20.68
2023-05-05T12:28:31.754Z,20.73
2023-05-05T12:29:31.766Z,21.28
2023-05-05T12:30:31.907Z,21.57
2023-05-05T12:31:31.812Z,20.73
2023-05-05T12:32:31.850Z,20.42
2023-05-05T12:33:31.852Z,20.69
2023-05-05T12:34:31.873Z,20.08
2023-05-05T12:35:31.933Z,21.42
2023-05-05T12:36:31.934Z,20.61
2023-05-05T12:37:31.934Z,20.33
2023-05-05T12:38:32.351Z,20.56
2023-05-05T12:39:32.055Z,21.46
2023-05-05T12:40:32.088Z,20.82
2023-05-05T12:41:32.160Z,19.67
2023-05-05T12:42:32.177Z,19.33
2023-05-05T12:43:35.399Z,19.22
2023-05-05T12:44:32.172Z,18.61
2023-05-05T12:45:32.191Z,18.42
2023-05-05T12:46:32.277Z,20.27
2023-05-05T12:47:32.312Z,18.77
2023-05-05T12:48:32.144Z,18.55
2023-05-05T12:49:32.149Z,18.46
2023-05-05T12:50:32.168Z,18.77
2023-05-05T12:51:32.137Z,18.24
2023-05-05T12:52:32.154Z,18.35